Will Rogers World Airport
KOKC : rendu visible

Aérodrome :











RETROUVEZ-NOUS SUR...

 
LOGIN :

S'inscrire | Disclaimer

   EN    FR    IT 

 









Légende :    VFR   VFR Marginal   IFR   IFR Intensif   IFR Très Intensif
Visi : 
Plafond : 
>= 8 km
>= 3000ft
5 à 8 km
1000 à 3000 ft
1500m à 5 km
500 à 1000 ft
800 à 1500m
200 à 500 ft
< 800m
< 200 ft
Symboles :   Orages  Brouillard  Fortes neiges  Fortes précipitations  Vent > 20 kt






- Altitude de l'aérodrome : 1295 ft
- Code IATA : OKC


KOKC - Will Rogers World

DERNIER METAR :
  • 271811Z 34012G20KT 2 1/2SM -FZRA BR BKN007 BKN012 OVC026 M01/M01 A3022 RMK AO2 FZRAB11 60055 T10111011 PNO $

METARs EXPIRÉS :
  • 271752Z 34012G20KT 5SM BR BKN007 BKN012 OVC026 M01/M01 A3021 RMK AO2 PRESFR SLP243 60055 T10111011 11006 21017 58011 $
  • 271652Z 34012G19KT 3SM BR BKN007 BKN012 OVC026 M01/M01 A3026 RMK AO2 SLP258 T10111011 PNO $
  • 271552Z 36005G16KT 6SM BR BKN007 BKN012 OVC026 M01/M01 A3026 RMK AO2 FZRAE42 SLP258 P0003 T10111011 $
  • 271548Z 36005G16KT 6SM BR BKN007 BKN012 OVC026 M01/M01 A3025 RMK AO2 FZRAE42 P0003 $

TAF KOKC
Valide du 27 à 18h jusqu'au 28 à 18h UTC


271751Z 2718/2818 36013KT 4SM -FZRA BR OVC008
TEMPO 2718/2721 2SM FZRA BR OVC010
FM280100 01011KT 5SM -FZDZ BR OVC005
FM281200 02011KT 3SM -RA OVC007
TEMPO 2812/2816 1SM TSRA BR OVC010CB
FIR KZFW / Amérique du Nord



MET'MAP, la Météo Aéronautique d'un coup d'oeil ! - Copyright ORBIFLY Décembre 2007 - Disclaimer

ORBIFLY MET'MAP TEAM :

Programmation & Développement : Alexandra Zaïnal
Sur une idée originale de : Baudouin d'Aumeries
Assistance à la programmation : Marc-Olivier Méhu
Soutien technique & logistique : Manuel Goepfert

Contact : metmap@orbifly.com




SOURCES & CREDITS :

   NOAA       Earth
Advisory